Time;durP1;ratioP1;P1;durP2;ratioP2;P2;SDS_P1;SDS_P2;PMS_P1;PMS_P2;Temp;Humidity;BMP_temperature;BMP_pressure;BME280_temperature;BME280_humidity;BME280_pressure;Samples;Min_cycle;Max_cycle;Signal;HPM_P1;HPM_P2
2022/12/26 00:01:41;;;;;;;17.90;4.65;;;;;;;15.54;78.90;100853.75;5083154;28;20055;-68
2022/12/26 00:04:09;;;;;;;18.55;4.13;;;;;;;15.39;79.28;100866.28;5083980;28;20074;-67
2022/12/26 00:06:57;;;;;;;13.23;3.95;;;;;;;15.48;79.61;100869.00;5098273;28;20055;-67
2022/12/26 00:09:26;;;;;;;14.03;3.70;;;;;;;15.53;79.12;100869.56;5072653;28;20056;-68
2022/12/26 00:11:53;;;;;;;12.68;4.70;;;;;;;15.50;78.22;100861.13;5098286;28;20286;-68
2022/12/26 00:14:21;;;;;;;12.20;3.80;;;;;;;15.31;79.20;100871.91;5089282;28;20048;-68
2022/12/26 00:16:48;;;;;;;11.63;4.15;;;;;;;15.36;80.11;100872.50;5079302;28;20060;-67
2022/12/26 00:19:15;;;;;;;13.77;4.63;;;;;;;15.03;79.58;100866.13;5065528;28;20051;-67
2022/12/26 00:21:43;;;;;;;14.68;3.72;;;;;;;15.19;81.34;100880.19;5087264;28;20040;-68
2022/12/26 00:24:10;;;;;;;14.13;4.43;;;;;;;15.29;81.38;100871.44;5097307;28;20552;-68
2022/12/26 00:26:38;;;;;;;16.65;4.22;;;;;;;14.89;79.94;100876.66;5096524;28;20048;-69
2022/12/26 00:29:05;;;;;;;14.18;4.35;;;;;;;15.16;82.32;100878.09;5078480;28;20158;-67
2022/12/26 00:31:34;;;;;;;10.88;4.13;;;;;;;14.97;81.54;100878.59;5097953;28;20048;-68
2022/12/26 00:34:02;;;;;;;12.95;3.85;;;;;;;14.98;81.33;100863.56;5097246;28;20052;-67
2022/12/26 00:36:31;;;;;;;13.55;3.92;;;;;;;15.04;80.62;100878.84;5090177;28;20052;-69
2022/12/26 00:39:00;;;;;;;13.48;4.57;;;;;;;15.35;80.60;100858.97;5079578;28;20052;-67
2022/12/26 00:41:29;;;;;;;14.93;3.58;;;;;;;15.31;80.25;100850.50;5096538;28;20059;-68
2022/12/26 00:43:56;;;;;;;10.48;3.65;;;;;;;15.23;79.10;100854.19;5098107;28;20052;-68
2022/12/26 00:46:25;;;;;;;13.00;3.97;;;;;;;15.11;80.06;100867.19;5097677;28;20044;-67
2022/12/26 00:48:52;;;;;;;14.15;3.88;;;;;;;15.34;80.45;100872.03;5097118;28;20040;-68
2022/12/26 00:51:20;;;;;;;9.45;3.20;;;;;;;15.28;80.10;100872.59;5097428;28;20515;-67
2022/12/26 00:53:48;;;;;;;12.15;3.22;;;;;;;14.96;80.92;100874.16;5058446;28;20040;-68
2022/12/26 00:56:15;;;;;;;11.85;3.35;;;;;;;15.17;80.58;100865.81;5095766;28;20043;-67
2022/12/26 00:58:43;;;;;;;13.18;3.55;;;;;;;15.12;79.66;100858.53;5097725;28;20052;-67
2022/12/26 01:01:16;;;;;;;10.95;2.95;;;;;;;15.15;81.27;100857.84;5068002;28;20044;-67
2022/12/26 01:03:44;;;;;;;9.73;3.20;;;;;;;15.06;80.58;100868.22;5077332;28;20065;-68
2022/12/26 01:06:12;;;;;;;10.73;3.05;;;;;;;15.19;80.43;100871.84;5093252;28;20052;-68
2022/12/26 01:08:39;;;;;;;11.32;3.25;;;;;;;15.06;79.92;100882.09;5046073;28;20052;-68
2022/12/26 01:11:09;;;;;;;10.05;2.65;;;;;;;14.89;81.53;100884.19;5095982;28;20051;-68
2022/12/26 01:13:37;;;;;;;12.32;3.22;;;;;;;15.01;81.42;100890.59;5095936;28;20063;-68
2022/12/26 01:16:05;;;;;;;14.68;3.35;;;;;;;15.03;82.02;100895.84;5075112;28;20075;-68
2022/12/26 01:18:33;;;;;;;9.95;3.00;;;;;;;14.99;80.37;100897.66;5075807;28;20048;-68
2022/12/26 01:21:04;;;;;;;11.85;2.70;;;;;;;14.85;80.09;100895.16;5078820;28;20439;-68
2022/12/26 01:23:32;;;;;;;13.75;3.20;;;;;;;14.87;81.20;100897.59;5096044;28;20048;-67
2022/12/26 01:25:59;;;;;;;8.68;2.75;;;;;;;15.04;80.54;100891.91;5096907;28;20041;-68
2022/12/26 01:28:47;;;;;;;13.07;3.05;;;;;;;15.06;79.82;100890.44;5097252;28;20056;-68
2022/12/26 01:31:15;;;;;;;9.15;2.75;;;;;;;15.02;80.94;100894.19;5096147;28;20055;-67
2022/12/26 01:33:43;;;;;;;9.95;2.72;;;;;;;15.04;80.40;100889.13;5078975;28;20044;-68
2022/12/26 01:36:10;;;;;;;11.70;2.92;;;;;;;15.05;80.93;100888.78;5084713;28;20055;-68
2022/12/26 01:38:38;;;;;;;9.50;2.40;;;;;;;15.06;80.57;100895.97;5094311;28;20060;-68
2022/12/26 01:41:20;;;;;;;12.30;2.60;;;;;;;15.05;80.33;100912.94;5078902;28;20055;-68
2022/12/26 01:43:51;;;;;;;10.80;2.30;;;;;;;15.26;80.12;100922.88;5097091;28;20371;-67
2022/12/26 01:46:40;;;;;;;8.88;2.60;;;;;;;15.37;79.20;100929.66;5074617;28;20048;-67
2022/12/26 01:49:36;;;;;;;11.68;2.67;;;;;;;15.47;78.81;100951.47;5076255;28;20052;-66
2022/12/26 01:52:07;;;;;;;9.90;2.63;;;;;;;15.29;77.65;100961.06;5073987;28;20048;-66
2022/12/26 01:54:36;;;;;;;6.55;2.20;;;;;;;15.17;80.28;100957.41;5096629;28;20052;-67
2022/12/26 01:57:19;;;;;;;9.57;2.80;;;;;;;15.14;79.80;100961.69;5096362;28;20051;-67
2022/12/26 01:59:47;;;;;;;12.77;2.75;;;;;;;15.15;81.02;100954.16;5094268;28;20044;-68
2022/12/26 02:02:15;;;;;;;9.30;2.92;;;;;;;15.00;79.63;100965.84;5078038;28;20055;-67
2022/12/26 02:07:39;;;;;;;7.82;3.50;;;;;;;15.02;80.42;100944.97;5066145;28;20067;-67
2022/12/26 02:10:12;;;;;;;12.85;3.22;;;;;;;15.05;80.29;100941.50;5078018;28;20518;-68
2022/12/26 02:12:40;;;;;;;6.40;2.40;;;;;;;15.16;79.81;100947.47;5078341;28;20051;-68
2022/12/26 02:15:11;;;;;;;6.93;2.20;;;;;;;15.21;79.78;100955.56;5096497;28;20056;-67
2022/12/26 02:17:40;;;;;;;8.27;2.42;;;;;;;15.15;80.45;100943.06;5096145;28;20052;-67
2022/12/26 02:20:28;;;;;;;10.50;2.22;;;;;;;15.11;79.47;100928.25;5077490;28;20052;-66
2022/12/26 02:23:33;;;;;;;9.63;2.53;;;;;;;15.28;79.32;100917.00;5095857;28;20051;-67
2022/12/26 02:26:16;;;;;;;9.15;2.30;;;;;;;15.30;79.58;100928.56;5082485;28;20055;-67
2022/12/26 02:29:11;;;;;;;9.80;2.33;;;;;;;15.17;79.67;100926.88;5077209;28;20056;-67
2022/12/26 02:31:50;;;;;;;8.82;2.35;;;;;;;15.20;79.34;100948.41;5094961;28;20056;-67
2022/12/26 02:34:48;;;;;;;8.02;2.05;;;;;;;15.04;79.88;100956.53;5060350;28;20040;-68
2022/12/26 02:37:54;;;;;;;7.90;2.58;;;;;;;15.00;79.62;100951.97;5077620;28;20051;-66
2022/12/26 02:40:27;;;;;;;9.70;2.35;;;;;;;15.08;79.37;100940.81;5044444;28;20412;-67
2022/12/26 02:43:05;;;;;;;7.95;2.35;;;;;;;15.03;79.47;100932.69;5095534;28;20063;-67
2022/12/26 02:48:37;;;;;;;7.32;1.80;;;;;;;15.05;79.16;100913.75;5075428;28;20157;-68
2022/12/26 03:15:01;;;;;;;7.00;1.52;;;;;;;15.12;79.55;100925.13;5080448;28;20048;-67
2022/12/26 03:17:35;;;;;;;10.85;1.90;;;;;;;15.17;79.54;100913.81;5093860;28;20656;-68
2022/12/26 03:20:15;;;;;;;6.78;1.60;;;;;;;15.02;79.18;100919.16;5077061;28;20543;-68
2022/12/26 03:22:46;;;;;;;8.95;1.88;;;;;;;15.11;79.55;100919.91;5076308;28;20048;-67
2022/12/26 03:28:15;;;;;;;5.63;1.35;;;;;;;15.07;80.35;100921.72;5095447;28;20052;-68
2022/12/26 03:30:49;;;;;;;6.55;1.60;;;;;;;15.05;79.16;100930.41;5076469;28;20048;-68
2022/12/26 03:36:23;;;;;;;8.05;2.05;;;;;;;15.03;79.29;100932.69;5076239;28;20055;-68
2022/12/26 03:39:11;;;;;;;9.30;1.88;;;;;;;15.22;79.26;100930.25;5076511;28;20055;-68
2022/12/26 04:19:53;;;;;;;10.18;1.63;;;;;;;15.10;80.12;100971.81;5057423;28;20067;-67
2022/12/26 04:45:21;;;;;;;7.00;1.15;;;;;;;14.87;80.06;100972.47;5097677;28;20406;-67
2022/12/26 04:50:35;;;;;;;6.72;1.60;;;;;;;14.99;79.70;100997.53;5080902;28;20055;-67
2022/12/26 04:53:03;;;;;;;9.05;1.33;;;;;;;15.12;79.53;100999.22;5080043;28;20052;-67
2022/12/26 04:55:31;;;;;;;7.13;1.48;;;;;;;14.91;79.37;101015.84;5097672;28;20376;-67
2022/12/26 04:57:59;;;;;;;6.22;1.25;;;;;;;14.90;79.69;101019.78;5098166;28;20044;-67
2022/12/26 05:00:27;;;;;;;6.25;1.35;;;;;;;14.85;79.77;101019.13;5094758;28;20047;-66
2022/12/26 05:11:32;;;;;;;6.95;1.60;;;;;;;14.84;79.46;101028.59;5096233;28;20044;-67
2022/12/26 05:14:00;;;;;;;3.50;1.23;;;;;;;15.01;80.41;101023.75;5074501;28;20052;-67
2022/12/26 05:30:25;;;;;;;4.90;1.50;;;;;;;14.82;79.77;101015.06;5063741;28;20040;-67
2022/12/26 05:35:38;;;;;;;8.13;1.40;;;;;;;14.71;78.06;101015.78;5096502;28;20553;-67
2022/12/26 05:38:08;;;;;;;7.03;1.45;;;;;;;14.50;79.67;101013.78;5096978;28;20063;-67
2022/12/26 05:40:35;;;;;;;6.27;1.37;;;;;;;14.41;81.60;101021.31;5073304;28;20119;-67
2022/12/26 05:43:02;;;;;;;5.78;1.30;;;;;;;14.28;80.05;101033.38;5059863;28;20059;-68
2022/12/26 05:45:31;;;;;;;6.95;1.50;;;;;;;14.55;81.06;101046.03;5096142;28;20519;-66
2022/12/26 05:47:59;;;;;;;5.53;1.30;;;;;;;14.61;80.52;101047.44;5097064;28;20052;-68
2022/12/26 05:50:27;;;;;;;4.38;1.10;;;;;;;14.65;81.16;101059.50;5076202;28;20044;-68
2022/12/26 05:52:58;;;;;;;7.55;1.50;;;;;;;14.58;79.12;101071.13;5062135;28;20051;-67
2022/12/26 05:55:26;;;;;;;6.60;1.48;;;;;;;14.62;79.68;101076.81;5096294;28;20051;-68
2022/12/26 05:57:53;;;;;;;7.75;1.55;;;;;;;14.75;78.86;101067.47;5096852;28;20059;-68
2022/12/26 06:00:20;;;;;;;6.35;1.40;;;;;;;14.38;77.06;101071.81;5096291;28;20079;-68
2022/12/26 06:02:47;;;;;;;4.40;1.20;;;;;;;14.34;79.03;101062.56;5067127;28;20068;-68
2022/12/26 06:05:15;;;;;;;6.47;1.50;;;;;;;14.40;80.30;101064.00;5075277;28;20126;-67
2022/12/26 06:07:43;;;;;;;3.78;1.20;;;;;;;14.20;77.48;101059.13;5075953;28;20060;-67
2022/12/26 06:10:11;;;;;;;6.43;1.13;;;;;;;14.25;79.92;101060.91;5058399;28;20055;-67
2022/12/26 06:12:38;;;;;;;5.18;1.40;;;;;;;14.49;79.82;101063.97;5075211;28;20051;-67
2022/12/26 06:15:06;;;;;;;5.20;1.33;;;;;;;14.03;79.17;101064.72;5076227;28;20368;-66
2022/12/26 06:17:33;;;;;;;5.43;1.27;;;;;;;14.25;80.22;101050.66;5057385;28;20056;-67
2022/12/26 06:20:01;;;;;;;5.55;1.05;;;;;;;14.53;79.12;101053.84;5041490;28;20056;-67
2022/12/26 06:22:28;;;;;;;6.30;1.60;;;;;;;14.67;78.07;101057.22;5074927;28;20068;-67
2022/12/26 06:24:56;;;;;;;5.78;1.23;;;;;;;14.52;78.49;101053.03;5075991;28;20060;-68
2022/12/26 06:27:23;;;;;;;5.63;1.33;;;;;;;14.44;77.73;101048.34;5058280;28;20052;-68
2022/12/26 06:29:50;;;;;;;3.03;1.00;;;;;;;14.56;77.92;101039.31;5075847;28;20049;-67
2022/12/26 06:32:18;;;;;;;5.20;1.17;;;;;;;14.74;77.24;101049.22;5075518;28;20079;-67
2022/12/26 06:34:47;;;;;;;8.50;1.40;;;;;;;14.53;77.58;101054.69;5057669;28;20048;-67
2022/12/26 06:37:14;;;;;;;7.35;1.60;;;;;;;14.65;78.18;101065.88;5054157;28;20056;-67
2022/12/26 06:39:41;;;;;;;4.03;1.20;;;;;;;14.66;77.64;101061.94;5075513;28;20055;-67
2022/12/26 06:42:09;;;;;;;5.80;1.45;;;;;;;14.59;77.88;101080.25;5072919;28;20049;-68
2022/12/26 06:44:37;;;;;;;6.05;1.50;;;;;;;14.32;77.50;101070.38;5075501;28;20048;-66
2022/12/26 06:47:04;;;;;;;5.82;1.20;;;;;;;14.48;77.56;101087.31;5074173;28;20049;-67
2022/12/26 06:49:32;;;;;;;4.40;1.30;;;;;;;14.43;78.26;101091.06;5056536;28;20148;-67
2022/12/26 06:51:59;;;;;;;6.07;1.40;;;;;;;14.29;77.39;101092.41;5073551;28;20047;-66
2022/12/26 06:54:27;;;;;;;7.75;1.30;;;;;;;14.46;77.86;101090.41;5074549;28;20056;-66
2022/12/26 06:56:54;;;;;;;5.00;1.58;;;;;;;14.51;78.31;101098.53;5051988;28;20045;-68
2022/12/26 06:59:21;;;;;;;6.03;1.20;;;;;;;14.53;78.50;101087.13;5055727;28;20053;-61
2022/12/26 07:01:49;;;;;;;7.35;1.52;;;;;;;14.26;77.78;101091.09;5068134;28;20056;-61
2022/12/26 07:04:16;;;;;;;7.78;1.63;;;;;;;14.41;79.91;101098.09;5087929;28;20063;-67
2022/12/26 07:06:43;;;;;;;7.53;1.38;;;;;;;14.30;78.65;101111.47;5094046;28;20055;-67
2022/12/26 07:09:13;;;;;;;7.53;1.58;;;;;;;14.20;80.15;101122.03;5077643;28;20040;-67
2022/12/26 07:11:43;;;;;;;4.20;1.25;;;;;;;14.35;79.71;101107.69;5094990;28;20055;-62
2022/12/26 07:14:10;;;;;;;5.85;1.70;;;;;;;14.43;79.36;101116.03;5095403;28;20048;-62
2022/12/26 07:16:39;;;;;;;5.95;1.40;;;;;;;14.41;79.69;101114.72;5077101;28;20093;-62
2022/12/26 07:19:08;;;;;;;6.13;1.55;;;;;;;14.40;78.29;101122.19;5095163;28;20047;-61
2022/12/26 07:21:35;;;;;;;9.98;1.23;;;;;;;14.29;78.43;101125.66;5093731;28;20055;-61
2022/12/26 07:24:14;;;;;;;6.93;1.50;;;;;;;14.22;79.56;101123.34;5095232;28;20075;-61
2022/12/26 07:26:41;;;;;;;8.35;2.00;;;;;;;14.23;78.99;101124.97;5093669;28;20489;-61
2022/12/26 07:29:10;;;;;;;4.82;1.45;;;;;;;14.03;78.60;101136.72;5095311;28;20436;-62
2022/12/26 07:31:37;;;;;;;4.93;1.20;;;;;;;14.25;80.25;101133.78;5093620;28;20059;-61
2022/12/26 07:34:05;;;;;;;6.70;1.80;;;;;;;14.34;79.44;101123.53;5094997;28;20513;-60
2022/12/26 07:36:32;;;;;;;6.15;1.50;;;;;;;14.23;79.77;101122.19;5094790;28;20048;-61
2022/12/26 07:38:59;;;;;;;9.82;1.80;;;;;;;14.21;79.48;101132.78;5094250;28;20609;-61
2022/12/26 07:44:14;;;;;;;6.18;1.20;;;;;;;14.16;77.98;101119.13;5077042;28;20510;-62
2022/12/26 07:46:42;;;;;;;7.40;2.08;;;;;;;14.06;79.31;101127.75;5094652;28;20052;-60
2022/12/26 07:49:11;;;;;;;8.27;1.63;;;;;;;13.88;80.18;101139.97;5095012;28;20055;-61
2022/12/26 07:51:38;;;;;;;7.88;2.25;;;;;;;14.10;81.04;101148.13;5042172;28;20048;-62
2022/12/26 07:54:05;;;;;;;5.05;1.52;;;;;;;14.02;80.67;101153.66;5094884;28;20048;-61
2022/12/26 07:56:38;;;;;;;8.23;1.80;;;;;;;14.24;79.49;101156.28;5092827;28;20672;-61
2022/12/26 07:59:06;;;;;;;8.63;1.85;;;;;;;13.95;79.65;101172.72;5094978;28;20044;-62
2022/12/26 08:01:33;;;;;;;5.53;1.83;;;;;;;14.30;80.52;101166.06;5094104;28;20067;-61
2022/12/26 08:04:01;;;;;;;5.63;1.42;;;;;;;14.32;79.66;101172.09;5075504;28;20055;-62
2022/12/26 08:06:28;;;;;;;8.77;1.90;;;;;;;14.39;79.07;101175.19;5098308;28;20055;-62
2022/12/26 08:08:57;;;;;;;8.63;1.90;;;;;;;13.94;79.07;101176.63;5073306;28;20067;-62
2022/12/26 08:11:24;;;;;;;7.05;1.60;;;;;;;13.90;77.64;101176.47;5096141;28;20146;-61
2022/12/26 08:13:52;;;;;;;8.85;2.05;;;;;;;13.90;79.58;101175.66;5098950;28;20422;-62
2022/12/26 08:16:19;;;;;;;5.53;1.25;;;;;;;14.20;80.03;101166.38;5089296;28;20040;-61
2022/12/26 08:18:46;;;;;;;7.07;1.75;;;;;;;14.21;80.36;101168.81;5088795;28;20040;-61
2022/12/26 08:21:14;;;;;;;7.18;1.95;;;;;;;14.17;78.90;101173.41;5062675;28;20048;-61
2022/12/26 08:23:41;;;;;;;7.00;1.95;;;;;;;14.49;79.82;101172.06;5097680;28;20170;-61
2022/12/26 08:26:15;;;;;;;5.60;1.50;;;;;;;14.46;76.91;101183.81;5077489;28;20044;-61
2022/12/26 08:28:42;;;;;;;9.75;1.58;;;;;;;14.30;79.06;101179.91;5068034;28;20067;-61
2022/12/26 08:31:11;;;;;;;7.43;1.75;;;;;;;14.45;78.73;101187.75;5072587;28;20078;-61
2022/12/26 08:33:38;;;;;;;6.10;1.52;;;;;;;14.41;78.48;101192.31;5063403;28;20056;-62
2022/12/26 08:36:08;;;;;;;5.97;1.70;;;;;;;14.38;76.50;101193.78;5061883;28;20055;-61
2022/12/26 08:38:36;;;;;;;7.95;1.60;;;;;;;14.52;77.49;101204.72;5094673;28;20067;-62
2022/12/26 08:41:04;;;;;;;6.50;1.67;;;;;;;14.29;78.03;101206.84;5079582;28;20510;-60
2022/12/26 08:43:31;;;;;;;8.45;2.00;;;;;;;14.23;78.46;101215.59;5093603;28;20040;-61
2022/12/26 08:46:20;;;;;;;6.00;1.77;;;;;;;14.56;78.19;101219.53;5083079;28;20044;-61
2022/12/26 08:48:48;;;;;;;7.97;1.65;;;;;;;14.77;79.64;101217.69;5074391;28;20055;-61
2022/12/26 08:51:18;;;;;;;8.30;2.00;;;;;;;14.60;76.63;101215.78;5106223;28;20060;-62
2022/12/26 08:53:48;;;;;;;9.05;1.40;;;;;;;14.57;75.54;101221.97;5064391;28;20048;-64
2022/12/26 08:56:17;;;;;;;7.75;1.65;;;;;;;14.44;76.13;101216.59;5088713;28;20044;-63
2022/12/26 08:58:45;;;;;;;9.88;2.00;;;;;;;14.59;77.43;101229.97;5089081;28;20059;-61
2022/12/26 09:01:15;;;;;;;8.68;1.92;;;;;;;14.66;76.51;101236.63;5091807;28;20043;-62
2022/12/26 09:03:42;;;;;;;;;;;;;;;14.51;77.85;101239.91;5068902;28;20538;-62
2022/12/26 09:06:11;;;;;;;6.80;1.73;;;;;;;14.58;77.04;101234.69;5070189;28;19920;-63
2022/12/26 09:08:39;;;;;;;8.68;1.50;;;;;;;14.80;75.80;101250.34;5071053;28;20059;-62
2022/12/26 09:11:11;;;;;;;10.07;1.95;;;;;;;14.89;75.26;101248.34;5053432;28;20052;-64
2022/12/26 09:13:40;;;;;;;6.82;2.08;;;;;;;14.83;74.04;101249.69;5055177;28;20048;-64
2022/12/26 09:16:13;;;;;;;12.02;3.33;;;;;;;14.97;74.05;101258.63;5066218;28;20041;-64
2022/12/26 09:18:42;;;;;;;9.95;1.95;;;;;;;15.04;75.72;101260.88;5072430;28;20044;-64
2022/12/26 09:21:10;;;;;;;8.98;2.05;;;;;;;14.44;72.87;101277.56;5073795;28;20048;-63
2022/12/26 09:23:38;;;;;;;5.63;1.77;;;;;;;14.58;76.58;101281.00;5057040;28;20510;-63
2022/12/26 09:26:10;;;;;;;15.52;3.65;;;;;;;14.78;75.83;101277.59;5088233;28;20045;-61
2022/12/26 09:28:37;;;;;;;12.75;2.95;;;;;;;14.62;76.88;101280.03;5074613;28;20053;-66
2022/12/26 09:31:08;;;;;;;12.27;2.17;;;;;;;14.51;76.13;101287.03;5054533;28;20052;-64
2022/12/26 09:33:38;;;;;;;8.10;2.00;;;;;;;14.90;77.42;101277.72;5065895;28;20048;-64
2022/12/26 09:36:08;;;;;;;17.33;2.90;;;;;;;15.31;78.01;101264.06;5055337;28;20051;-66
2022/12/26 09:38:42;;;;;;;10.60;2.58;;;;;;;15.15;76.20;101273.28;5065645;28;20047;-62
2022/12/26 09:41:13;;;;;;;12.17;2.37;;;;;;;14.78;75.72;101277.59;5082582;28;20052;-63
2022/12/26 09:43:52;;;;;;;;;;;;;;;14.96;77.40;101276.41;5083688;28;20048;-63
2022/12/26 09:46:23;;;;;;;10.27;1.80;;;;;;;14.68;75.11;101290.97;5066051;28;19935;-63
2022/12/26 09:48:57;;;;;;;9.27;2.08;;;;;;;14.96;76.95;101281.16;5060772;28;20059;-62
2022/12/26 09:51:25;;;;;;;10.00;2.47;;;;;;;15.06;75.30;101287.16;5080826;28;20072;-66
2022/12/26 09:53:53;;;;;;;11.43;2.03;;;;;;;14.84;76.23;101311.47;5050879;28;20067;-64
2022/12/26 09:56:22;;;;;;;11.30;1.80;;;;;;;14.54;76.64;101305.78;5054288;28;20044;-65
2022/12/26 09:59:15;;;;;;;6.95;1.55;;;;;;;14.46;76.80;101311.34;5061696;28;20052;-61
2022/12/26 10:01:43;;;;;;;13.30;2.55;;;;;;;14.68;78.39;101306.44;5071393;28;20063;-61
2022/12/26 10:04:22;;;;;;;6.88;1.73;;;;;;;14.78;77.79;101312.81;5080145;28;20078;-58
2022/12/26 10:07:23;;;;;;;8.35;1.65;;;;;;;14.81;76.72;101298.28;5088833;28;20047;-63
2022/12/26 10:10:04;;;;;;;7.00;1.83;;;;;;;14.93;77.71;101299.25;5091757;28;20063;-62
2022/12/26 10:12:51;;;;;;;5.32;1.90;;;;;;;14.99;76.08;101299.91;5064402;28;20443;-64
2022/12/26 10:15:52;;;;;;;5.75;1.52;;;;;;;15.02;75.28;101308.38;5079653;28;20048;-65
2022/12/26 10:18:35;;;;;;;11.60;1.75;;;;;;;14.86;76.46;101311.97;5093797;28;20063;-66
2022/12/26 10:21:13;;;;;;;6.43;1.80;;;;;;;15.19;76.36;101299.19;5075480;28;20074;-67
2022/12/26 10:23:44;;;;;;;10.63;3.88;;;;;;;15.36;75.84;101297.19;5110754;28;20475;-67
2022/12/26 10:26:20;;;;;;;14.55;3.67;;;;;;;15.28;73.94;101303.59;5085297;28;20048;-67
2022/12/26 10:28:53;;;;;;;10.13;2.47;;;;;;;15.24;74.99;101301.78;5059795;28;20044;-67
2022/12/26 10:31:40;;;;;;;14.10;3.85;;;;;;;15.32;73.62;101299.03;5075883;28;20062;-71
2022/12/26 10:34:16;;;;;;;10.15;2.83;;;;;;;15.21;73.61;101297.75;5075169;28;20044;-70
2022/12/26 10:36:47;;;;;;;10.25;2.30;;;;;;;15.27;73.08;101292.84;5062476;28;20048;-64
2022/12/26 10:39:38;;;;;;;9.10;2.20;;;;;;;14.96;72.45;101289.47;5074801;28;20052;-69
2022/12/26 10:42:24;;;;;;;10.52;1.90;;;;;;;14.41;74.62;101308.72;5056349;28;20044;-64
2022/12/26 10:44:52;;;;;;;7.93;1.77;;;;;;;14.66;75.91;101310.69;5075920;28;20048;-66
2022/12/26 10:47:38;;;;;;;8.23;2.20;;;;;;;14.77;75.17;101314.75;5095670;28;20043;-65
2022/12/26 10:50:05;;;;;;;11.23;2.13;;;;;;;14.55;74.27;101309.38;5110796;28;20521;-66
2022/12/26 10:52:36;;;;;;;8.40;1.98;;;;;;;14.80;74.51;101319.69;5094183;28;20052;-65
2022/12/26 10:55:05;;;;;;;8.02;2.28;;;;;;;14.81;74.34;101321.28;5073918;28;20040;-66
2022/12/26 10:57:53;;;;;;;6.78;2.05;;;;;;;14.94;73.61;101320.28;5079507;28;20040;-66
2022/12/26 11:00:23;;;;;;;13.40;4.30;;;;;;;14.79;73.14;101314.44;5094826;28;20055;-68
2022/12/26 11:03:11;;;;;;;9.10;2.08;;;;;;;14.98;73.52;101317.69;5074633;28;20047;-67
2022/12/26 11:05:41;;;;;;;8.57;2.38;;;;;;;15.11;72.96;101320.28;5092107;28;20048;-65
2022/12/26 11:08:36;;;;;;;13.00;3.25;;;;;;;15.08;72.30;101307.06;5090397;28;20056;-65
2022/12/26 11:11:44;;;;;;;12.25;4.60;;;;;;;15.34;72.15;101318.91;5093446;28;20044;-66
2022/12/26 11:14:31;;;;;;;8.68;1.95;;;;;;;14.93;71.14;101321.44;5091629;28;20448;-65
2022/12/26 11:17:05;;;;;;;7.82;2.60;;;;;;;14.81;71.33;101328.78;5091747;28;20059;-67
2022/12/26 11:19:33;;;;;;;11.52;2.22;;;;;;;14.88;72.17;101321.63;5089567;28;20058;-69
2022/12/26 11:22:27;;;;;;;11.18;2.92;;;;;;;15.17;72.21;101310.63;5090428;28;20081;-68
2022/12/26 11:25:06;;;;;;;6.68;2.15;;;;;;;15.32;71.06;101312.91;5092543;28;20533;-68
2022/12/26 11:27:38;;;;;;;9.93;2.20;;;;;;;15.30;71.21;101306.88;5071970;28;20069;-68
2022/12/26 11:30:20;;;;;;;10.35;2.60;;;;;;;15.35;70.95;101311.41;5091934;28;20324;-69
2022/12/26 11:33:21;;;;;;;8.57;2.38;;;;;;;15.38;70.32;101305.19;5087513;28;20048;-69
2022/12/26 11:36:08;;;;;;;16.67;4.82;;;;;;;15.26;70.51;101307.84;5062622;28;20048;-70
2022/12/26 11:38:57;;;;;;;24.42;8.68;;;;;;;15.35;70.54;101312.22;5093849;28;20040;-69
2022/12/26 11:41:30;;;;;;;26.02;13.48;;;;;;;15.15;69.71;101309.34;5096552;28;20054;-71
2022/12/26 11:44:21;;;;;;;17.20;8.18;;;;;;;15.02;70.64;101316.72;5086648;28;20051;-70
2022/12/26 11:46:51;;;;;;;13.23;5.28;;;;;;;15.17;71.26;101326.47;5077078;28;20051;-70
2022/12/26 11:49:51;;;;;;;16.35;5.32;;;;;;;15.43;71.69;101332.81;5089652;28;20427;-70
2022/12/26 11:52:36;;;;;;;8.95;2.70;;;;;;;15.31;71.38;101339.00;5037011;28;20056;-71
2022/12/26 11:55:25;;;;;;;10.52;2.70;;;;;;;14.49;70.49;101341.16;5098714;28;20048;-70
2022/12/26 11:58:05;;;;;;;9.50;2.88;;;;;;;15.14;71.59;101327.94;5097997;28;20471;-69
2022/12/26 12:00:34;;;;;;;12.43;3.97;;;;;;;15.15;70.81;101337.88;5093625;28;20063;-70
2022/12/26 12:03:03;;;;;;;13.25;5.43;;;;;;;15.22;70.65;101332.66;5094712;28;20079;-71
2022/12/26 12:05:52;;;;;;;33.08;6.10;;;;;;;14.93;70.63;101329.78;5067638;28;20463;-70
2022/12/26 12:08:48;;;;;;;16.17;5.10;;;;;;;15.06;71.21;101337.13;5110260;28;20052;-71
2022/12/26 12:11:40;;;;;;;10.88;2.78;;;;;;;14.60;70.99;101351.63;5090607;28;20048;-72
2022/12/26 12:14:20;;;;;;;7.53;1.35;;;;;;;13.18;73.03;101391.88;5088237;28;20380;-69
2022/12/26 12:16:51;;;;;;;;;;;;;;;12.13;75.84;101386.78;5099238;28;20044;-69
2022/12/26 12:19:40;;;;;;;7.22;1.40;;;;;;;11.90;80.27;101389.75;5096002;28;19935;-68
2022/12/26 12:22:31;;;;;;;8.13;1.37;;;;;;;12.49;81.93;101378.56;5074578;28;20067;-69
2022/12/26 12:25:26;;;;;;;6.03;1.58;;;;;;;12.38;79.51;101382.66;5093089;28;20063;-69
2022/12/26 12:28:10;;;;;;;5.88;2.50;;;;;;;11.63;83.56;101386.94;5087942;28;20040;-70
2022/12/26 12:30:50;;;;;;;9.63;1.90;;;;;;;12.17;85.40;101389.75;5077776;28;20051;-70
2022/12/26 12:33:31;;;;;;;;;;;;;;;12.35;84.77;101395.19;5098960;28;20050;-70
2022/12/26 12:36:33;;;;;;;8.30;1.85;;;;;;;11.51;88.82;101403.97;5096726;28;19927;-69
2022/12/26 12:39:10;;;;;;;8.88;4.57;;;;;;;11.88;89.10;101405.81;5060224;28;20426;-69
2022/12/26 12:41:54;;;;;;;7.35;4.20;;;;;;;12.01;91.33;101405.81;5062662;28;20044;-68
2022/12/26 12:44:43;;;;;;;6.57;2.10;;;;;;;12.30;88.23;101408.28;5078771;28;20051;-68
2022/12/26 12:47:39;;;;;;;8.68;3.17;;;;;;;12.15;89.03;101427.94;5090978;28;20135;-68
2022/12/26 12:50:39;;;;;;;6.03;1.85;;;;;;;11.15;91.36;101434.09;5080334;28;20067;-70
2022/12/26 12:53:40;;;;;;;5.57;1.70;;;;;;;10.53;97.11;101430.88;5090444;28;20050;-70
2022/12/26 12:56:29;;;;;;;13.10;2.30;;;;;;;10.57;95.02;101418.13;5093182;28;20154;-69
2022/12/26 12:59:38;;;;;;;12.80;2.85;;;;;;;11.02;94.03;101434.00;5074914;28;20051;-70
2022/12/26 13:02:17;;;;;;;12.35;3.22;;;;;;;10.86;90.74;101438.94;4998953;28;20059;-69
2022/12/26 13:04:52;;;;;;;10.70;3.60;;;;;;;10.48;88.68;101442.78;5109896;28;20376;-71
2022/12/26 13:07:26;;;;;;;7.20;2.65;;;;;;;10.79;87.96;101443.19;5071480;28;20044;-68
2022/12/26 13:09:57;;;;;;;7.68;2.47;;;;;;;11.41;85.05;101441.94;5095202;28;20051;-69
2022/12/26 13:12:33;;;;;;;11.73;1.70;;;;;;;11.38;81.94;101448.91;5076129;28;20059;-69
2022/12/26 13:15:12;;;;;;;7.68;1.40;;;;;;;11.27;82.25;101459.28;5079649;28;20051;-68
2022/12/26 13:17:47;;;;;;;7.35;1.50;;;;;;;11.37;79.98;101454.72;5078368;28;20052;-69
2022/12/26 13:20:18;;;;;;;10.75;1.85;;;;;;;11.44;76.35;101455.94;5058323;28;20048;-69
2022/12/26 13:26:03;;;;;;;8.05;1.90;;;;;;;11.53;75.49;101461.59;5077628;28;20048;-67
2022/12/26 13:28:33;;;;;;;8.43;1.50;;;;;;;12.04;73.75;101456.84;5094194;28;20455;-68
2022/12/26 13:31:00;;;;;;;8.77;1.83;;;;;;;11.64;71.74;101452.91;5095451;28;20051;-69
2022/12/26 13:33:28;;;;;;;11.32;2.25;;;;;;;11.63;72.27;101453.16;5096977;28;20066;-67
2022/12/26 13:35:58;;;;;;;13.15;2.28;;;;;;;11.46;70.77;101463.94;5077027;28;20040;-67
2022/12/26 13:38:55;;;;;;;10.25;2.05;;;;;;;11.19;71.62;101468.22;5095486;28;20135;-67
2022/12/26 13:44:18;;;;;;;10.32;2.22;;;;;;;11.37;72.05;101469.31;5080419;28;20052;-68
2022/12/26 13:46:46;;;;;;;11.43;1.80;;;;;;;11.71;70.74;101456.09;5096100;28;20043;-68
2022/12/26 13:49:26;;;;;;;8.82;1.50;;;;;;;11.43;68.92;101467.28;5095219;28;20036;-68
2022/12/26 13:52:14;;;;;;;9.95;1.95;;;;;;;11.34;71.04;101472.69;5071988;28;20040;-66
2022/12/26 13:54:51;;;;;;;6.78;1.75;;;;;;;11.66;68.97;101471.91;5077942;28;20048;-68
2022/12/26 13:57:33;;;;;;;11.63;2.22;;;;;;;11.19;68.86;101486.72;5094771;28;20052;-67
2022/12/26 14:00:05;;;;;;;10.27;1.63;;;;;;;11.31;71.36;101490.63;5096893;28;20056;-67
2022/12/26 14:03:04;;;;;;;7.18;2.53;;;;;;;12.16;72.45;101484.78;5073642;28;20044;-67
2022/12/26 14:06:11;;;;;;;8.30;2.25;;;;;;;12.01;67.35;101499.69;5098484;28;20052;-68
2022/12/26 14:09:15;;;;;;;10.00;2.08;;;;;;;11.73;70.43;101519.25;5072396;28;20514;-66
2022/12/26 14:11:54;;;;;;;10.68;2.78;;;;;;;11.83;68.50;101510.78;5092196;28;20060;-68